createdAt,value
2023-09-06T00:01:30.650Z,100.00
2023-09-06T00:03:57.289Z,100.00
2023-09-06T00:06:23.985Z,100.00
2023-09-06T00:08:51.911Z,100.00
2023-09-06T00:11:18.340Z,100.00
2023-09-06T00:13:44.676Z,100.00
2023-09-06T00:16:11.001Z,100.00
2023-09-06T00:18:38.550Z,100.00
2023-09-06T00:21:06.905Z,100.00
2023-09-06T00:23:33.959Z,100.00
2023-09-06T00:26:00.517Z,100.00
2023-09-06T00:28:27.798Z,100.00
2023-09-06T00:30:58.868Z,100.00
2023-09-06T00:33:34.106Z,100.00
2023-09-06T00:36:02.236Z,100.00
2023-09-06T00:38:30.223Z,100.00
2023-09-06T00:40:56.829Z,100.00
2023-09-06T00:43:23.268Z,100.00
2023-09-06T00:45:51.836Z,100.00
2023-09-06T00:48:30.654Z,100.00
2023-09-06T00:50:58.337Z,100.00
2023-09-06T00:53:26.424Z,100.00
2023-09-06T00:55:53.262Z,100.00
2023-09-06T00:58:21.407Z,100.00
2023-09-06T01:00:51.299Z,100.00
2023-09-06T01:03:18.533Z,100.00
2023-09-06T01:05:53.257Z,100.00
2023-09-06T01:08:29.972Z,100.00
2023-09-06T01:11:12.207Z,100.00
2023-09-06T01:13:38.595Z,100.00
2023-09-06T01:16:05.268Z,100.00
2023-09-06T01:18:32.135Z,100.00
2023-09-06T01:21:07.695Z,100.00
2023-09-06T01:23:35.798Z,100.00
2023-09-06T01:26:03.511Z,100.00
2023-09-06T01:28:30.410Z,100.00
2023-09-06T01:30:57.792Z,100.00
2023-09-06T01:33:24.315Z,100.00
2023-09-06T01:35:51.736Z,100.00
2023-09-06T01:38:18.669Z,100.00
2023-09-06T01:40:45.688Z,100.00
2023-09-06T01:43:12.755Z,100.00
2023-09-06T01:45:45.923Z,100.00
2023-09-06T01:48:12.766Z,100.00
2023-09-06T01:50:39.115Z,100.00
2023-09-06T01:53:05.488Z,100.00
2023-09-06T01:55:31.886Z,100.00
2023-09-06T01:57:58.274Z,100.00
2023-09-06T02:00:33.365Z,100.00
2023-09-06T02:03:00.893Z,100.00
2023-09-06T02:05:27.416Z,100.00
2023-09-06T02:07:53.750Z,100.00
2023-09-06T02:10:20.183Z,100.00
2023-09-06T02:12:46.688Z,100.00
2023-09-06T02:15:16.298Z,100.00
2023-09-06T02:17:44.158Z,100.00
2023-09-06T02:20:25.653Z,100.00
2023-09-06T02:22:57.338Z,100.00
2023-09-06T02:25:31.786Z,100.00
2023-09-06T02:27:59.330Z,100.00
2023-09-06T02:30:26.080Z,100.00
2023-09-06T02:32:53.359Z,100.00
2023-09-06T02:35:20.023Z,100.00
2023-09-06T02:37:46.416Z,100.00
2023-09-06T02:40:18.138Z,100.00
2023-09-06T02:42:45.386Z,100.00
2023-09-06T02:45:12.774Z,100.00
2023-09-06T02:47:49.046Z,100.00
2023-09-06T02:50:17.973Z,100.00
2023-09-06T02:52:47.776Z,100.00
2023-09-06T02:55:14.746Z,100.00
2023-09-06T02:57:42.687Z,100.00
2023-09-06T03:00:30.759Z,100.00
2023-09-06T03:03:07.935Z,100.00
2023-09-06T03:05:44.885Z,100.00
2023-09-06T03:08:15.770Z,100.00
2023-09-06T03:10:43.604Z,100.00
2023-09-06T03:13:12.866Z,100.00
2023-09-06T03:15:44.561Z,100.00
2023-09-06T03:18:11.404Z,100.00
2023-09-06T03:20:46.819Z,100.00
2023-09-06T03:23:18.608Z,100.00
2023-09-06T03:25:46.748Z,100.00
2023-09-06T03:28:13.464Z,100.00
2023-09-06T03:30:40.080Z,100.00
2023-09-06T03:33:07.398Z,100.00
2023-09-06T03:35:34.257Z,100.00
2023-09-06T03:38:01.181Z,100.00
2023-09-06T03:40:35.903Z,100.00
2023-09-06T03:43:06.898Z,100.00
2023-09-06T03:45:35.224Z,100.00
2023-09-06T03:48:01.884Z,100.00
2023-09-06T03:50:31.172Z,100.00
2023-09-06T03:52:58.380Z,100.00
2023-09-06T03:55:25.646Z,100.00
2023-09-06T03:57:53.510Z,100.00
2023-09-06T04:00:27.655Z,100.00
2023-09-06T04:03:01.068Z,100.00
2023-09-06T04:05:28.252Z,100.00
2023-09-06T04:07:57.362Z,100.00
2023-09-06T04:10:25.731Z,100.00
2023-09-06T04:12:54.558Z,100.00
2023-09-06T04:15:22.530Z,100.00
2023-09-06T04:17:58.622Z,100.00
2023-09-06T04:20:32.256Z,100.00
2023-09-06T04:23:05.181Z,100.00
2023-09-06T04:25:35.508Z,100.00
2023-09-06T04:28:02.626Z,100.00
2023-09-06T04:30:29.956Z,100.00
2023-09-06T04:32:58.818Z,100.00
2023-09-06T04:35:34.757Z,100.00
2023-09-06T04:38:03.745Z,100.00
2023-09-06T04:40:30.462Z,100.00
2023-09-06T04:42:57.051Z,100.00
2023-09-06T04:45:23.526Z,100.00
2023-09-06T04:47:50.266Z,100.00
2023-09-06T04:50:16.825Z,100.00
2023-09-06T04:52:48.552Z,100.00
2023-09-06T04:55:15.938Z,100.00
2023-09-06T04:57:42.671Z,100.00
2023-09-06T05:00:18.564Z,100.00
2023-09-06T05:02:47.023Z,100.00
2023-09-06T05:05:16.829Z,100.00
2023-09-06T05:07:43.236Z,100.00
2023-09-06T05:10:12.844Z,100.00
2023-09-06T05:12:40.028Z,100.00
2023-09-06T05:15:07.631Z,100.00
2023-09-06T05:17:34.228Z,100.00
2023-09-06T05:20:28.848Z,100.00
2023-09-06T05:22:57.185Z,100.00
2023-09-06T05:25:23.696Z,100.00
2023-09-06T05:27:50.680Z,100.00
2023-09-06T05:30:17.281Z,100.00
2023-09-06T05:32:44.302Z,100.00
2023-09-06T05:35:11.644Z,100.00
2023-09-06T05:37:39.205Z,100.00
2023-09-06T05:40:07.097Z,100.00
2023-09-06T05:42:33.604Z,100.00
2023-09-06T05:45:00.128Z,100.00
2023-09-06T05:47:26.745Z,100.00
2023-09-06T05:49:56.822Z,100.00
2023-09-06T05:52:23.754Z,100.00
2023-09-06T05:54:51.023Z,100.00
2023-09-06T05:57:19.540Z,100.00
2023-09-06T05:59:46.047Z,100.00
2023-09-06T06:02:13.138Z,100.00
2023-09-06T06:04:40.932Z,100.00
2023-09-06T06:07:07.600Z,100.00
2023-09-06T06:09:34.918Z,100.00
2023-09-06T06:12:04.685Z,100.00
2023-09-06T06:14:31.393Z,100.00
2023-09-06T06:16:58.521Z,100.00
2023-09-06T06:19:25.103Z,100.00
2023-09-06T06:21:51.758Z,100.00
2023-09-06T06:24:18.587Z,100.00
2023-09-06T06:26:44.976Z,100.00
2023-09-06T06:29:11.474Z,100.00
2023-09-06T06:31:38.147Z,100.00
2023-09-06T06:34:04.985Z,100.00
2023-09-06T06:36:32.604Z,100.00
2023-09-06T06:38:59.512Z,100.00
2023-09-06T06:41:27.068Z,100.00
2023-09-06T06:43:53.911Z,100.00
2023-09-06T06:46:31.619Z,100.00
2023-09-06T06:48:58.240Z,100.00
2023-09-06T06:51:30.040Z,100.00
2023-09-06T06:53:56.430Z,100.00
2023-09-06T06:56:22.964Z,100.00
2023-09-06T06:58:49.782Z,100.00
2023-09-06T07:01:16.451Z,100.00
2023-09-06T07:03:43.000Z,100.00
2023-09-06T07:06:09.652Z,100.00
2023-09-06T07:08:39.252Z,100.00
2023-09-06T07:11:06.163Z,100.00
2023-09-06T07:13:32.620Z,100.00
2023-09-06T07:15:59.917Z,100.00
2023-09-06T07:18:26.531Z,100.00
2023-09-06T07:23:49.563Z,100.00
2023-09-06T07:26:18.119Z,100.00
2023-09-06T07:28:46.648Z,100.00
2023-09-06T07:31:14.097Z,98.29
2023-09-06T07:33:41.016Z,100.00
2023-09-06T07:36:08.139Z,100.00
2023-09-06T07:38:34.993Z,98.55
2023-09-06T07:41:04.482Z,83.38
2023-09-06T07:43:31.601Z,82.29
2023-09-06T07:46:01.555Z,81.48
2023-09-06T07:48:30.836Z,81.22
2023-09-06T07:50:59.177Z,79.49
2023-09-06T07:53:27.084Z,78.84
2023-09-06T07:55:54.313Z,78.23
2023-09-06T07:58:21.322Z,78.19
2023-09-06T08:00:53.924Z,77.23
2023-09-06T08:03:27.293Z,77.25
2023-09-06T08:05:55.425Z,78.94
2023-09-06T08:08:21.852Z,77.82
2023-09-06T08:10:48.402Z,75.59
2023-09-06T08:13:14.755Z,75.43
2023-09-06T08:15:41.203Z,73.90
2023-09-06T08:18:09.539Z,72.36
2023-09-06T08:20:36.220Z,70.50
2023-09-06T08:23:02.849Z,71.31
2023-09-06T08:25:29.453Z,70.76
2023-09-06T08:27:55.852Z,69.38
2023-09-06T08:30:23.435Z,68.36
2023-09-06T08:32:52.118Z,67.98
2023-09-06T08:35:19.062Z,68.00
2023-09-06T08:37:48.362Z,65.81
2023-09-06T08:40:16.843Z,65.98
2023-09-06T08:42:45.185Z,66.48
2023-09-06T08:45:12.336Z,65.81
2023-09-06T08:47:42.988Z,63.19
2023-09-06T08:50:10.938Z,62.46
2023-09-06T08:52:42.246Z,63.21
2023-09-06T08:55:11.270Z,62.32
2023-09-06T08:57:42.858Z,61.53
2023-09-06T09:00:11.181Z,62.10
2023-09-06T09:02:38.695Z,62.24
2023-09-06T09:05:19.701Z,62.28
2023-09-06T09:07:59.171Z,62.87
2023-09-06T09:10:29.848Z,61.98
2023-09-06T09:12:57.830Z,62.90
2023-09-06T09:15:27.212Z,60.47
2023-09-06T09:18:00.999Z,59.86
2023-09-06T09:20:29.210Z,60.15
2023-09-06T09:23:02.756Z,59.39
2023-09-06T09:25:30.144Z,59.60
2023-09-06T09:28:00.077Z,60.12
2023-09-06T09:30:29.701Z,59.82
2023-09-06T09:33:02.704Z,60.61
2023-09-06T09:35:34.012Z,60.27
2023-09-06T09:38:02.649Z,60.25
2023-09-06T09:43:05.742Z,58.65
2023-09-06T09:45:44.942Z,58.14
2023-09-06T09:48:12.157Z,58.58
2023-09-06T09:50:42.294Z,58.83
2023-09-06T09:53:20.354Z,58.68
2023-09-06T09:55:49.037Z,57.58
2023-09-06T09:58:18.190Z,57.64
2023-09-06T10:00:44.676Z,58.24
2023-09-06T10:03:11.778Z,59.23
2023-09-06T10:05:39.031Z,57.89
2023-09-06T10:08:08.332Z,58.06
2023-09-06T10:10:38.276Z,57.15
2023-09-06T10:13:08.795Z,58.36
2023-09-06T10:15:40.895Z,57.04
2023-09-06T10:18:08.605Z,58.16
2023-09-06T10:20:38.340Z,58.12
2023-09-06T10:23:06.899Z,54.83
2023-09-06T10:25:38.566Z,54.92
2023-09-06T10:28:05.329Z,56.46
2023-09-06T10:30:48.861Z,52.59
2023-09-06T10:33:37.163Z,52.58
2023-09-06T10:36:13.320Z,52.75
2023-09-06T10:38:52.296Z,52.33
2023-09-06T10:41:20.066Z,50.42
2023-09-06T10:43:59.788Z,50.96
2023-09-06T10:46:34.502Z,49.87
2023-09-06T10:49:13.411Z,50.14
2023-09-06T10:52:04.283Z,50.35
2023-09-06T10:54:46.212Z,50.83
2023-09-06T10:57:16.424Z,50.69
2023-09-06T10:59:56.494Z,50.07
2023-09-06T11:02:23.392Z,50.25
2023-09-06T11:05:03.589Z,48.26
2023-09-06T11:07:49.241Z,47.76
2023-09-06T11:10:23.010Z,47.69
2023-09-06T11:12:49.454Z,46.89
2023-09-06T11:15:16.051Z,47.36
2023-09-06T11:17:43.542Z,47.92
2023-09-06T11:20:14.024Z,46.97
2023-09-06T11:22:59.421Z,46.98
2023-09-06T11:25:27.695Z,46.67
2023-09-06T11:27:59.379Z,44.80
2023-09-06T11:30:27.744Z,46.27
2023-09-06T11:32:56.415Z,46.05
2023-09-06T11:35:35.474Z,45.08
2023-09-06T11:38:04.095Z,44.27
2023-09-06T11:40:33.439Z,44.30
2023-09-06T11:43:06.274Z,43.75
2023-09-06T11:45:34.030Z,44.22
2023-09-06T11:48:05.941Z,43.65
2023-09-06T11:50:33.715Z,44.43
2023-09-06T11:53:05.620Z,44.52
2023-09-06T11:55:35.528Z,45.07
2023-09-06T11:58:02.062Z,44.55
2023-09-06T12:00:46.928Z,43.49
2023-09-06T12:03:17.675Z,43.26
2023-09-06T12:05:49.933Z,44.08
2023-09-06T12:08:22.922Z,42.60
2023-09-06T12:10:54.136Z,42.48
2023-09-06T12:13:47.566Z,41.64
2023-09-06T12:16:14.322Z,41.79
2023-09-06T12:18:41.096Z,41.52
2023-09-06T12:21:07.710Z,42.14
2023-09-06T12:23:38.009Z,42.57
2023-09-06T12:26:05.975Z,41.99
2023-09-06T12:28:33.394Z,42.33
2023-09-06T12:31:07.777Z,42.36
2023-09-06T12:33:39.199Z,44.01
2023-09-06T12:36:06.977Z,41.55
2023-09-06T12:38:33.667Z,40.88
2023-09-06T12:41:01.323Z,40.87
2023-09-06T12:43:27.730Z,40.40
2023-09-06T12:45:54.980Z,40.60
2023-09-06T12:48:22.763Z,39.45
2023-09-06T12:50:49.847Z,38.94
2023-09-06T12:53:17.221Z,40.19
2023-09-06T12:55:44.552Z,39.90
2023-09-06T12:58:11.003Z,40.53
2023-09-06T13:00:37.787Z,39.63
2023-09-06T13:03:04.312Z,40.11
2023-09-06T13:05:32.683Z,39.78
2023-09-06T13:08:02.874Z,39.92
2023-09-06T13:10:32.527Z,39.72
2023-09-06T13:12:59.277Z,39.45
2023-09-06T13:15:25.624Z,38.96
2023-09-06T13:17:52.040Z,38.50
2023-09-06T13:20:18.860Z,39.73
2023-09-06T13:22:47.850Z,39.90
2023-09-06T13:25:14.577Z,39.08
2023-09-06T13:27:42.765Z,39.11
2023-09-06T13:30:09.757Z,38.95
2023-09-06T13:32:36.384Z,38.98
2023-09-06T13:35:03.676Z,38.53
2023-09-06T13:37:30.796Z,39.96
2023-09-06T13:39:58.274Z,38.92
2023-09-06T13:42:24.973Z,39.11
2023-09-06T13:44:51.521Z,39.81
2023-09-06T13:47:18.542Z,39.48
2023-09-06T13:49:44.937Z,38.98
2023-09-06T13:52:12.868Z,38.52
2023-09-06T13:54:41.260Z,37.78
2023-09-06T13:57:08.344Z,37.71
2023-09-06T13:59:34.928Z,36.36
2023-09-06T14:02:01.507Z,36.38
2023-09-06T14:04:28.096Z,36.76
2023-09-06T14:06:55.577Z,36.63
2023-09-06T14:09:23.733Z,36.76
2023-09-06T14:11:50.773Z,37.73
2023-09-06T14:14:18.819Z,36.22
2023-09-06T14:16:46.078Z,36.53
2023-09-06T14:19:12.773Z,36.50
2023-09-06T14:21:46.414Z,35.35
2023-09-06T14:24:14.687Z,35.48
2023-09-06T14:26:44.029Z,35.28
2023-09-06T14:29:12.962Z,34.20
2023-09-06T14:31:40.061Z,34.64
2023-09-06T14:34:06.531Z,34.85
2023-09-06T14:36:33.230Z,34.65
2023-09-06T14:39:00.044Z,35.01
2023-09-06T14:41:26.484Z,34.77
2023-09-06T14:43:53.144Z,34.45
2023-09-06T14:46:19.934Z,34.34
2023-09-06T14:48:47.148Z,35.16
2023-09-06T14:51:13.643Z,35.04
2023-09-06T14:53:40.021Z,35.57
2023-09-06T14:56:08.000Z,35.56
2023-09-06T14:58:34.657Z,34.83
2023-09-06T15:01:01.971Z,35.39
2023-09-06T15:03:28.864Z,37.14
2023-09-06T15:05:55.424Z,36.32
2023-09-06T15:08:21.784Z,36.21
2023-09-06T15:10:48.357Z,36.38
2023-09-06T15:13:14.781Z,37.24
2023-09-06T15:15:43.373Z,37.90
2023-09-06T15:18:10.377Z,38.31
2023-09-06T15:20:37.338Z,38.84
2023-09-06T15:23:04.123Z,36.68
2023-09-06T15:25:30.992Z,36.20
2023-09-06T15:27:57.374Z,36.63
2023-09-06T15:30:23.940Z,36.71
2023-09-06T15:32:50.564Z,38.42
2023-09-06T15:35:17.730Z,38.62
2023-09-06T15:37:58.183Z,39.37
2023-09-06T15:40:25.113Z,39.22
2023-09-06T15:42:51.575Z,38.89
2023-09-06T15:45:18.019Z,39.13
2023-09-06T15:47:46.685Z,39.40
2023-09-06T15:50:20.916Z,39.74
2023-09-06T15:52:48.754Z,40.03
2023-09-06T15:55:16.009Z,39.22
2023-09-06T15:57:43.506Z,40.45
2023-09-06T16:00:24.286Z,40.09
2023-09-06T16:02:57.428Z,40.30
2023-09-06T16:05:23.994Z,40.01
2023-09-06T16:07:50.446Z,40.14
2023-09-06T16:10:16.792Z,40.20
2023-09-06T16:12:44.874Z,40.98
2023-09-06T16:15:13.113Z,40.81
2023-09-06T16:17:39.681Z,41.13
2023-09-06T16:20:06.792Z,41.21
2023-09-06T16:22:33.196Z,40.51
2023-09-06T16:25:01.722Z,40.60
2023-09-06T16:27:28.046Z,40.64
2023-09-06T16:29:54.615Z,41.36
2023-09-06T16:32:21.125Z,41.12
2023-09-06T16:34:47.622Z,41.52
2023-09-06T16:37:14.024Z,41.93
2023-09-06T16:39:44.519Z,42.11
2023-09-06T16:42:11.056Z,41.86
2023-09-06T16:44:39.030Z,42.34
2023-09-06T16:47:06.023Z,42.37
2023-09-06T16:49:32.878Z,42.65
2023-09-06T16:51:59.397Z,42.89
2023-09-06T16:54:26.008Z,42.81
2023-09-06T16:56:52.334Z,42.97
2023-09-06T16:59:18.712Z,42.94
2023-09-06T17:01:45.236Z,43.52
2023-09-06T17:04:11.711Z,43.18
2023-09-06T17:06:38.278Z,44.05
2023-09-06T17:09:09.549Z,43.85
2023-09-06T17:11:41.344Z,44.69
2023-09-06T17:14:08.354Z,45.34
2023-09-06T17:16:34.991Z,46.12
2023-09-06T17:19:16.723Z,46.93
2023-09-06T17:21:43.128Z,47.42
2023-09-06T17:24:10.008Z,48.11
2023-09-06T17:26:42.561Z,48.60
2023-09-06T17:29:15.315Z,49.15
2023-09-06T17:31:43.100Z,49.94
2023-09-06T17:34:12.855Z,50.84
2023-09-06T17:36:39.869Z,51.64
2023-09-06T17:39:09.128Z,52.69
2023-09-06T17:41:36.853Z,53.69
2023-09-06T17:44:06.844Z,54.91
2023-09-06T17:46:36.634Z,55.77
2023-09-06T17:49:06.992Z,56.75
2023-09-06T17:51:35.283Z,57.34
2023-09-06T17:54:04.408Z,59.13
2023-09-06T17:56:30.883Z,59.70
2023-09-06T17:58:57.812Z,60.74
2023-09-06T18:01:24.875Z,61.39
2023-09-06T18:03:58.837Z,62.17
2023-09-06T18:06:26.929Z,62.38
2023-09-06T18:08:59.202Z,63.32
2023-09-06T18:11:26.082Z,63.50
2023-09-06T18:13:53.167Z,63.79
2023-09-06T18:16:19.748Z,64.37
2023-09-06T18:18:46.466Z,64.63
2023-09-06T18:21:14.718Z,66.24
2023-09-06T18:23:42.160Z,67.44
2023-09-06T18:26:11.741Z,68.38
2023-09-06T18:28:38.289Z,70.76
2023-09-06T18:31:05.266Z,72.38
2023-09-06T18:33:31.738Z,74.22
2023-09-06T18:35:58.151Z,75.92
2023-09-06T18:38:25.093Z,77.69
2023-09-06T18:40:55.339Z,79.47
2023-09-06T18:43:23.343Z,81.33
2023-09-06T18:45:50.945Z,82.26
2023-09-06T18:48:20.389Z,84.88
2023-09-06T18:50:48.011Z,87.22
2023-09-06T18:53:14.841Z,89.31
2023-09-06T18:55:44.296Z,92.79
2023-09-06T18:58:11.999Z,94.97
2023-09-06T19:00:39.927Z,98.49
2023-09-06T19:03:12.312Z,100.00
2023-09-06T19:05:40.060Z,100.00
2023-09-06T19:08:12.543Z,100.00
2023-09-06T19:10:41.056Z,100.00
2023-09-06T19:13:08.357Z,100.00
2023-09-06T19:15:35.149Z,100.00
2023-09-06T19:18:03.443Z,100.00
2023-09-06T19:20:29.932Z,100.00
2023-09-06T19:22:56.395Z,100.00
2023-09-06T19:25:26.412Z,100.00
2023-09-06T19:27:53.330Z,100.00
2023-09-06T19:30:20.135Z,100.00
2023-09-06T19:32:46.636Z,100.00
2023-09-06T19:35:14.132Z,100.00
2023-09-06T19:37:40.536Z,100.00
2023-09-06T19:40:08.150Z,100.00
2023-09-06T19:42:34.941Z,100.00
2023-09-06T19:45:02.301Z,100.00
2023-09-06T19:47:28.853Z,100.00
2023-09-06T19:49:56.849Z,100.00
2023-09-06T19:52:23.328Z,100.00
2023-09-06T19:54:49.729Z,100.00
2023-09-06T19:57:16.776Z,100.00
2023-09-06T19:59:43.151Z,100.00
2023-09-06T20:02:09.607Z,100.00
2023-09-06T20:04:36.389Z,100.00
2023-09-06T20:07:05.174Z,100.00
2023-09-06T20:09:31.951Z,100.00
2023-09-06T20:11:58.586Z,100.00
2023-09-06T20:14:28.639Z,100.00
2023-09-06T20:16:56.694Z,100.00
2023-09-06T20:19:23.559Z,100.00
2023-09-06T20:21:50.044Z,100.00
2023-09-06T20:24:17.646Z,100.00
2023-09-06T20:26:44.289Z,100.00
2023-09-06T20:29:11.024Z,100.00
2023-09-06T20:31:38.038Z,100.00
2023-09-06T20:34:05.067Z,100.00
2023-09-06T20:36:32.838Z,100.00
2023-09-06T20:38:59.297Z,100.00
2023-09-06T20:41:25.797Z,100.00
2023-09-06T20:43:52.194Z,100.00
2023-09-06T20:46:18.672Z,100.00
2023-09-06T20:48:47.078Z,100.00
2023-09-06T20:51:15.368Z,100.00
2023-09-06T20:53:44.253Z,100.00
2023-09-06T20:56:11.260Z,100.00
2023-09-06T20:58:37.687Z,100.00
2023-09-06T21:01:14.970Z,100.00
2023-09-06T21:03:42.099Z,100.00
2023-09-06T21:06:08.761Z,100.00
2023-09-06T21:08:35.342Z,100.00
2023-09-06T21:11:02.616Z,100.00
2023-09-06T21:13:29.073Z,100.00
2023-09-06T21:15:57.127Z,100.00
2023-09-06T21:18:24.598Z,100.00
2023-09-06T21:20:51.212Z,100.00
2023-09-06T21:23:17.635Z,100.00
2023-09-06T21:25:44.252Z,100.00
2023-09-06T21:28:10.783Z,100.00
2023-09-06T21:30:42.181Z,100.00
2023-09-06T21:33:09.885Z,100.00
2023-09-06T21:35:41.704Z,100.00
2023-09-06T21:38:08.844Z,100.00
2023-09-06T21:40:43.282Z,100.00
2023-09-06T21:43:19.232Z,100.00
2023-09-06T21:45:46.693Z,100.00
2023-09-06T21:48:13.430Z,100.00
2023-09-06T21:50:41.852Z,100.00
2023-09-06T21:53:08.508Z,100.00
2023-09-06T21:55:35.086Z,100.00
2023-09-06T21:58:09.509Z,100.00
2023-09-06T22:00:37.187Z,100.00
2023-09-06T22:03:03.829Z,100.00
2023-09-06T22:05:30.229Z,100.00
2023-09-06T22:07:56.628Z,100.00
2023-09-06T22:10:23.093Z,100.00
2023-09-06T22:12:49.732Z,100.00
2023-09-06T22:15:16.294Z,100.00
2023-09-06T22:17:43.274Z,100.00
2023-09-06T22:20:10.229Z,100.00
2023-09-06T22:22:37.011Z,100.00
2023-09-06T22:25:05.561Z,100.00
2023-09-06T22:27:31.929Z,100.00
2023-09-06T22:29:58.318Z,100.00
2023-09-06T22:32:24.801Z,100.00
2023-09-06T22:34:51.159Z,100.00
2023-09-06T22:37:17.516Z,100.00
2023-09-06T22:39:44.147Z,100.00
2023-09-06T22:42:12.023Z,100.00
2023-09-06T22:44:38.514Z,100.00
2023-09-06T22:47:05.014Z,100.00
2023-09-06T22:49:31.457Z,100.00
2023-09-06T22:51:58.049Z,100.00
2023-09-06T22:54:24.473Z,100.00
2023-09-06T22:56:50.932Z,100.00
2023-09-06T22:59:17.434Z,100.00
2023-09-06T23:01:43.962Z,100.00
2023-09-06T23:04:11.644Z,100.00
2023-09-06T23:06:38.309Z,100.00
2023-09-06T23:09:07.951Z,100.00
2023-09-06T23:11:35.505Z,100.00
2023-09-06T23:14:06.373Z,100.00
2023-09-06T23:16:34.784Z,100.00
2023-09-06T23:19:03.185Z,100.00
2023-09-06T23:21:38.766Z,100.00
2023-09-06T23:24:12.564Z,100.00
2023-09-06T23:26:40.048Z,100.00
2023-09-06T23:29:08.327Z,100.00
2023-09-06T23:31:40.061Z,100.00
2023-09-06T23:34:15.621Z,100.00
2023-09-06T23:36:42.082Z,100.00
2023-09-06T23:39:12.522Z,100.00
2023-09-06T23:41:41.356Z,100.00
2023-09-06T23:44:09.479Z,100.00
2023-09-06T23:46:36.241Z,100.00
2023-09-06T23:49:03.043Z,100.00
2023-09-06T23:51:30.775Z,100.00
2023-09-06T23:53:57.101Z,100.00
2023-09-06T23:56:23.497Z,100.00
2023-09-06T23:58:49.896Z,100.00
